Svinoy — V7RM5 — position and weather

sailwx.info

Track history (hours):
 
Tides and Currents Weather Stations Pressure Air Temp Water Temp Dewpoint Dewpoint Depression Visibility Wind Speed Wind Dir Waves Ship Positions

Svinoy

Last reported at 2017-May-24 02:00 UTC. Time now 2017-May-24 02:24 UTC.
Position N 50°56' E 001°29'.

Length 190 m; draft 12.2 m.

Type: Cargo ship. MMSI: 538003541.

Date/timePositionNaut miles runAvg speedWind from/ knotsBaromVisibWave heightAir tempDewpointWater temp
2017-May-24 02:00N 50°56' E 001°29'611.9
2017-May-24 01:30N 50°51' E 001°26'1911.6
2017-May-23 23:51N 50°35' E 001°08'1411.6
2017-May-23 22:38N 50°28' E 000°50'211.7
2017-May-23 22:29N 50°27' E 000°47'2011.9
2017-May-23 20:49N 50°22' E 000°17'412.3
2017-May-23 20:29N 50°21' E 000°10'612.7
2017-May-23 20:00N 50°20' E 000°01'813.1
2017-May-23 19:25N 50°18' W 000°10'613.6
2017-May-23 19:00N 50°16' W 000°19'9111.5
2017-May-23 11:09N 49°53' W 002°35'5 8.8
2017-May-23 10:36N 49°51' W 002°43'1 9.0
2017-May-23 10:26N 49°51' W 002°45'4 9.2
2017-May-23 10:00N 49°50' W 002°51'5 9.7
2017-May-23 09:30N 49°47' W 002°57'710.1
2017-May-23 08:51N 49°44' W 003°06'410.4
2017-May-23 08:31N 49°42' W 003°11'510.6
2017-May-23 08:00N 49°40' W 003°18'1010.8
2017-May-23 07:03N 49°34' W 003°31'2911.2
2017-May-23 04:28N 49°20' W 004°10'511.9
2017-May-23 04:00N 49°17' W 004°17'612.0
2017-May-23 03:28N 49°13' W 004°25'612.2
2017-May-23 03:01N 49°10' W 004°33'612.3
2017-May-23 02:30N 49°07' W 004°41'612.4
2017-May-23 02:00N 49°04' W 004°49'612.4
2017-May-23 01:31N 49°01' W 004°57'612.5
2017-May-23 01:00N 48°58' W 005°05'612.4
2017-May-23 00:30N 48°55' W 005°13'612.5
2017-May-23 00:00N 48°52' W 005°22'612.1
2017-May-22 23:30N 48°49' W 005°30'611.6
2017-May-22 23:00N 48°46' W 005°37'4211.1
2017-May-22 19:12N 48°09' W 006°07'210.4
2017-May-22 19:00N 48°07' W 006°08'510.3
2017-May-22 18:30N 48°02' W 006°12'510.1
2017-May-22 18:00N 47°58' W 006°16'910.2
2017-May-22 17:09N 47°50' W 006°22'410.3
2017-May-22 16:44N 47°46' W 006°25'42710.8
2017-May-21 01:09N 41°05' W 009°49'511.1
2017-May-21 00:43N 41°00' W 009°49'210.5
2017-May-21 00:29N 40°58' W 009°49'510.8
2017-May-21 00:00N 40°52' W 009°49'510.7
2017-May-20 23:31N 40°47' W 009°50'510.6
2017-May-20 23:01N 40°42' W 009°50'510.6
2017-May-20 22:30N 40°37' W 009°50'510.5
2017-May-20 22:00N 40°31' W 009°50'510.4
2017-May-20 21:30N 40°26' W 009°50'510.5
2017-May-20 21:00N 40°21' W 009°50'510.3
2017-May-20 20:31N 40°16' W 009°50'510.2
2017-May-20 20:00N 40°11' W 009°50'510.0
2017-May-20 19:31N 40°06' W 009°50'5 9.8
2017-May-20 19:00N 40°01' W 009°50'5 9.8
2017-May-20 18:30N 39°56' W 009°50'5 9.9
2017-May-20 18:00N 39°51' W 009°50'5 9.8
2017-May-20 17:30N 39°46' W 009°51'5 9.7
2017-May-20 17:00N 39°41' W 009°51'5 9.4
2017-May-20 16:31N 39°36' W 009°51'5 9.6
2017-May-20 16:00N 39°32' W 009°51'5 9.6
2017-May-20 15:30N 39°27' W 009°51'5 9.5
2017-May-20 15:00N 39°22' W 009°51'5 9.5
2017-May-20 14:31N 39°17' W 009°51'10 9.6
2017-May-20 13:30N 39°08' W 009°51'5 9.4
2017-May-20 13:00N 39°03' W 009°51'5 9.5
2017-May-20 12:31N 38°58' W 009°51'5 9.6
2017-May-20 12:00N 38°54' W 009°52'5 9.4
2017-May-20 11:30N 38°49' W 009°51'5 9.6
2017-May-20 11:00N 38°44' W 009°51'5 9.6
2017-May-20 10:31N 38°39' W 009°50'5 9.8
2017-May-20 10:01N 38°34' W 009°49'5 9.8
2017-May-20 09:30N 38°30' W 009°47'5 9.6
2017-May-20 09:00N 38°25' W 009°46'5 9.6
2017-May-20 08:30N 38°20' W 009°44'5 9.9
2017-May-20 08:01N 38°16' W 009°43'5 9.8
2017-May-20 07:31N 38°11' W 009°42'5 9.9
2017-May-20 07:01N 38°06' W 009°40'5 9.8
2017-May-20 06:31N 38°01' W 009°39'510.1
2017-May-20 06:00N 37°56' W 009°37'510.3
2017-May-20 05:30N 37°51' W 009°36'510.2
2017-May-20 05:01N 37°46' W 009°34'510.2
2017-May-20 04:30N 37°41' W 009°33'510.4
2017-May-20 04:00N 37°36' W 009°31'510.3
2017-May-20 03:30N 37°31' W 009°29'510.2
2017-May-20 03:00N 37°26' W 009°28'510.1
2017-May-20 02:30N 37°21' W 009°27'710.0
2017-May-20 01:48N 37°15' W 009°25'310.0
2017-May-20 01:28N 37°11' W 009°24'710.1
2017-May-20 00:49N 37°05' W 009°22'410.0
2017-May-20 00:23N 37°01' W 009°21'1210.2
2017-May-19 23:14N 36°50' W 009°15'2 7.3
2017-May-19 23:00N 36°49' W 009°14'6 9.7
2017-May-19 22:25N 36°45' W 009°09'511.0
2017-May-19 21:58N 36°44' W 009°03'510.9
2017-May-19 21:28N 36°43' W 008°56'510.8
2017-May-19 21:00N 36°42' W 008°50'510.9
2017-May-19 20:31N 36°42' W 008°43'510.7
2017-May-19 20:01N 36°41' W 008°37'510.5
2017-May-19 19:30N 36°41' W 008°30'510.7
2017-May-19 19:00N 36°40' W 008°23'510.7
2017-May-19 18:31N 36°40' W 008°17'510.5
2017-May-19 18:01N 36°39' W 008°10'510.9
2017-May-19 17:30N 36°39' W 008°03'611.0
2017-May-19 17:00N 36°38' W 007°56'611.0
2017-May-19 16:30N 36°38' W 007°50'511.0
2017-May-19 16:00N 36°37' W 007°43'611.1
2017-May-19 15:30N 36°37' W 007°36'811.4
2017-May-19 14:48N 36°36' W 007°26'87 8.0
2017-May-19 03:50N 35°58' W 005°49'611.9
2017-May-19 03:21N 35°58' W 005°42'410.5
2017-May-19 02:58N 35°58' W 005°37'4 9.4
2017-May-19 02:30N 35°59' W 005°32'4 8.5
2017-May-19 02:01N 35°59' W 005°26'4 7.9
2017-May-19 01:31N 36°00' W 005°22'4 8.1
2017-May-19 01:00N 36°01' W 005°17'4 8.4
2017-May-19 00:31N 36°02' W 005°12'5 9.8
2017-May-19 00:00N 36°03' W 005°06'156 9.9
2017-May-18 08:11N 36°28' W 001°54'212.2
2017-May-18 08:00N 36°28' W 001°51'612.3
2017-May-18 07:30N 36°30' W 001°44'2312.2
2017-May-18 05:35N 36°33' W 001°15'212.2
2017-May-18 05:26N 36°33' W 001°13'512.2
2017-May-18 05:00N 36°34' W 001°06'1712.2
2017-May-18 03:37N 36°37' W 000°46'212.4
2017-May-18 03:27N 36°37' W 000°43'2912.2
2017-May-18 01:06N 36°41' W 000°08'512.1
2017-May-18 00:41N 36°42' W 000°01'712.2
2017-May-18 00:08N 36°43' E 000°07'212.3
2017-May-18 00:01N 36°43' E 000°09'612.1
2017-May-17 23:30N 36°44' E 000°16'1812.0
2017-May-17 22:00N 36°47' E 000°38'711.7
2017-May-17 21:25N 36°48' E 000°47'511.8
2017-May-17 21:00N 36°49' E 000°53'612.0
2017-May-17 20:30N 36°50' E 001°00'612.1
2017-May-17 20:00N 36°51' E 001°08'611.9
2017-May-17 19:30N 36°52' E 001°15'612.0
2017-May-17 19:00N 36°53' E 001°22'712.1
2017-May-17 18:25N 36°54' E 001°31'512.2
2017-May-17 17:59N 36°55' E 001°38'2512.4
2017-May-17 15:57N 36°59' E 002°09'512.3
2017-May-17 15:30N 36°60' E 002°16'612.4
2017-May-17 15:01N 37°00' E 002°23'1312.5
2017-May-17 14:00N 37°02' E 002°39'612.3
2017-May-17 13:30N 37°03' E 002°46'612.2
2017-May-17 13:00N 37°04' E 002°54'612.4
2017-May-17 12:31N 37°05' E 003°02'612.4
2017-May-17 12:00N 37°06' E 003°09'612.4
2017-May-17 11:30N 37°06' E 003°17'612.4
2017-May-17 11:00N 37°07' E 003°25'612.4
2017-May-17 10:31N 37°08' E 003°32'612.4
2017-May-17 10:00N 37°09' E 003°40'612.5
2017-May-17 09:30N 37°09' E 003°48'612.6
2017-May-17 09:00N 37°10' E 003°56'612.5
2017-May-17 08:30N 37°11' E 004°04'612.3
2017-May-17 07:59N 37°11' E 004°12'1712.3
2017-May-17 06:36N 37°13' E 004°33'112.5
2017-May-17 06:30N 37°13' E 004°34'612.2
2017-May-17 06:00N 37°14' E 004°42'612.4
2017-May-17 05:30N 37°15' E 004°50'812.3
2017-May-17 04:53N 37°15' E 004°59'512.1
2017-May-17 04:30N 37°15' E 005°05'612.0
2017-May-17 04:00N 37°15' E 005°13'1612.1
2017-May-17 02:39N 37°16' E 005°33'212.4
2017-May-17 02:28N 37°16' E 005°36'612.5
2017-May-17 02:00N 37°16' E 005°43'612.5
2017-May-17 01:30N 37°16' E 005°51'612.3
2017-May-17 01:00N 37°16' E 005°59'712.1
2017-May-17 00:28N 37°17' E 006°07'12212.0
2017-May-16 14:15N 37°19' E 008°41'1111.7
2017-May-16 13:18N 37°19' E 008°55'612.0
2017-May-16 12:48N 37°22' E 009°02'412.7
2017-May-16 12:28N 37°23' E 009°07'612.3
2017-May-16 12:00N 37°25' E 009°14'8010.7
2017-May-16 04:33N 37°31' E 010°54'111.1
2017-May-16 04:29N 37°31' E 010°54'8211.3
2017-May-15 21:14N 36°59' E 012°29'311.2
2017-May-15 20:59N 36°57' E 012°33'611.2
2017-May-15 20:24N 36°55' E 012°40'411.1
2017-May-15 20:00N 36°53' E 012°45'511.1
2017-May-15 19:30N 36°51' E 012°51'611.1
2017-May-15 19:00N 36°48' E 012°58'611.0
2017-May-15 18:30N 36°46' E 013°04'611.1
2017-May-15 18:00N 36°44' E 013°10'611.3
2017-May-15 17:30N 36°41' E 013°17'611.6
2017-May-15 17:01N 36°39' E 013°23'611.7
2017-May-15 16:30N 36°37' E 013°30'611.5
2017-May-15 16:00N 36°34' E 013°36'611.6
2017-May-15 15:31N 36°32' E 013°43'611.6
2017-May-15 15:00N 36°29' E 013°50'611.5
2017-May-15 14:30N 36°27' E 013°56'1111.4
2017-May-15 13:30N 36°23' E 014°09'611.2
2017-May-15 13:01N 36°20' E 014°15'611.2
2017-May-15 12:30N 36°20' E 014°22'611.1
2017-May-15 12:00N 36°20' E 014°29'611.1
2017-May-15 11:30N 36°20' E 014°36'611.2
2017-May-15 11:01N 36°20' E 014°43'611.3
2017-May-15 10:30N 36°20' E 014°50'611.5
2017-May-15 10:00N 36°20' E 014°57'611.6
2017-May-15 09:30N 36°21' E 015°04'611.5
2017-May-15 09:01N 36°21' E 015°11'611.7
2017-May-15 08:30N 36°22' E 015°19'4112.3
2017-May-15 05:09N 36°20' E 016°10'212.0
2017-May-15 05:00N 36°20' E 016°12'  
Track history (hours):
 
Tides and Currents Weather Stations Pressure Air Temp Water Temp Dewpoint Dewpoint Depression Visibility Wind Speed Wind Dir Waves Ship Positions

Svinoy

Last reported at 2017-May-24 02:00 UTC. Time now 2017-May-24 02:24 UTC.
Position N 50°56' E 001°29'.

Length 190 m; draft 12.2 m.

Type: Cargo ship. MMSI: 538003541.

Date/timePositionNaut miles runAvg speedWind from/ knotsBaromVisibWave heightAir tempDewpointWater temp
2017-May-24 02:00N 50°56' E 001°29'611.9
2017-May-24 01:30N 50°51' E 001°26'1911.6
2017-May-23 23:51N 50°35' E 001°08'1411.6
2017-May-23 22:38N 50°28' E 000°50'211.7
2017-May-23 22:29N 50°27' E 000°47'2011.9
2017-May-23 20:49N 50°22' E 000°17'412.3
2017-May-23 20:29N 50°21' E 000°10'612.7
2017-May-23 20:00N 50°20' E 000°01'813.1
2017-May-23 19:25N 50°18' W 000°10'613.6
2017-May-23 19:00N 50°16' W 000°19'9111.5
2017-May-23 11:09N 49°53' W 002°35'5 8.8
2017-May-23 10:36N 49°51' W 002°43'1 9.0
2017-May-23 10:26N 49°51' W 002°45'4 9.2
2017-May-23 10:00N 49°50' W 002°51'5 9.7
2017-May-23 09:30N 49°47' W 002°57'710.1
2017-May-23 08:51N 49°44' W 003°06'410.4
2017-May-23 08:31N 49°42' W 003°11'510.6
2017-May-23 08:00N 49°40' W 003°18'1010.8
2017-May-23 07:03N 49°34' W 003°31'2911.2
2017-May-23 04:28N 49°20' W 004°10'511.9
2017-May-23 04:00N 49°17' W 004°17'612.0
2017-May-23 03:28N 49°13' W 004°25'612.2
2017-May-23 03:01N 49°10' W 004°33'612.3
2017-May-23 02:30N 49°07' W 004°41'612.4
2017-May-23 02:00N 49°04' W 004°49'612.4
2017-May-23 01:31N 49°01' W 004°57'612.5
2017-May-23 01:00N 48°58' W 005°05'612.4
2017-May-23 00:30N 48°55' W 005°13'612.5
2017-May-23 00:00N 48°52' W 005°22'612.1
2017-May-22 23:30N 48°49' W 005°30'611.6
2017-May-22 23:00N 48°46' W 005°37'4211.1
2017-May-22 19:12N 48°09' W 006°07'210.4
2017-May-22 19:00N 48°07' W 006°08'510.3
2017-May-22 18:30N 48°02' W 006°12'510.1
2017-May-22 18:00N 47°58' W 006°16'910.2
2017-May-22 17:09N 47°50' W 006°22'410.3
2017-May-22 16:44N 47°46' W 006°25'42710.8
2017-May-21 01:09N 41°05' W 009°49'511.1
2017-May-21 00:43N 41°00' W 009°49'210.5
2017-May-21 00:29N 40°58' W 009°49'510.8
2017-May-21 00:00N 40°52' W 009°49'510.7
2017-May-20 23:31N 40°47' W 009°50'510.6
2017-May-20 23:01N 40°42' W 009°50'510.6
2017-May-20 22:30N 40°37' W 009°50'510.5
2017-May-20 22:00N 40°31' W 009°50'510.4
2017-May-20 21:30N 40°26' W 009°50'510.5
2017-May-20 21:00N 40°21' W 009°50'510.3
2017-May-20 20:31N 40°16' W 009°50'510.2
2017-May-20 20:00N 40°11' W 009°50'510.0
2017-May-20 19:31N 40°06' W 009°50'5 9.8
2017-May-20 19:00N 40°01' W 009°50'5 9.8
2017-May-20 18:30N 39°56' W 009°50'5 9.9
2017-May-20 18:00N 39°51' W 009°50'5 9.8
2017-May-20 17:30N 39°46' W 009°51'5 9.7
2017-May-20 17:00N 39°41' W 009°51'5 9.4
2017-May-20 16:31N 39°36' W 009°51'5 9.6
2017-May-20 16:00N 39°32' W 009°51'5 9.6
2017-May-20 15:30N 39°27' W 009°51'5 9.5
2017-May-20 15:00N 39°22' W 009°51'5 9.5
2017-May-20 14:31N 39°17' W 009°51'10 9.6
2017-May-20 13:30N 39°08' W 009°51'5 9.4
2017-May-20 13:00N 39°03' W 009°51'5 9.5
2017-May-20 12:31N 38°58' W 009°51'5 9.6
2017-May-20 12:00N 38°54' W 009°52'5 9.4
2017-May-20 11:30N 38°49' W 009°51'5 9.6
2017-May-20 11:00N 38°44' W 009°51'5 9.6
2017-May-20 10:31N 38°39' W 009°50'5 9.8
2017-May-20 10:01N 38°34' W 009°49'5 9.8
2017-May-20 09:30N 38°30' W 009°47'5 9.6
2017-May-20 09:00N 38°25' W 009°46'5 9.6
2017-May-20 08:30N 38°20' W 009°44'5 9.9
2017-May-20 08:01N 38°16' W 009°43'5 9.8
2017-May-20 07:31N 38°11' W 009°42'5 9.9
2017-May-20 07:01N 38°06' W 009°40'5 9.8
2017-May-20 06:31N 38°01' W 009°39'510.1
2017-May-20 06:00N 37°56' W 009°37'510.3
2017-May-20 05:30N 37°51' W 009°36'510.2
2017-May-20 05:01N 37°46' W 009°34'510.2
2017-May-20 04:30N 37°41' W 009°33'510.4
2017-May-20 04:00N 37°36' W 009°31'510.3
2017-May-20 03:30N 37°31' W 009°29'510.2
2017-May-20 03:00N 37°26' W 009°28'510.1
2017-May-20 02:30N 37°21' W 009°27'710.0
2017-May-20 01:48N 37°15' W 009°25'310.0
2017-May-20 01:28N 37°11' W 009°24'710.1
2017-May-20 00:49N 37°05' W 009°22'410.0
2017-May-20 00:23N 37°01' W 009°21'1210.2
2017-May-19 23:14N 36°50' W 009°15'2 7.3
2017-May-19 23:00N 36°49' W 009°14'6 9.7
2017-May-19 22:25N 36°45' W 009°09'511.0
2017-May-19 21:58N 36°44' W 009°03'510.9
2017-May-19 21:28N 36°43' W 008°56'510.8
2017-May-19 21:00N 36°42' W 008°50'510.9
2017-May-19 20:31N 36°42' W 008°43'510.7
2017-May-19 20:01N 36°41' W 008°37'510.5
2017-May-19 19:30N 36°41' W 008°30'510.7
2017-May-19 19:00N 36°40' W 008°23'510.7
2017-May-19 18:31N 36°40' W 008°17'510.5
2017-May-19 18:01N 36°39' W 008°10'510.9
2017-May-19 17:30N 36°39' W 008°03'611.0
2017-May-19 17:00N 36°38' W 007°56'611.0
2017-May-19 16:30N 36°38' W 007°50'511.0
2017-May-19 16:00N 36°37' W 007°43'611.1
2017-May-19 15:30N 36°37' W 007°36'811.4
2017-May-19 14:48N 36°36' W 007°26'87 8.0
2017-May-19 03:50N 35°58' W 005°49'611.9
2017-May-19 03:21N 35°58' W 005°42'410.5
2017-May-19 02:58N 35°58' W 005°37'4 9.4
2017-May-19 02:30N 35°59' W 005°32'4 8.5
2017-May-19 02:01N 35°59' W 005°26'4 7.9
2017-May-19 01:31N 36°00' W 005°22'4 8.1
2017-May-19 01:00N 36°01' W 005°17'4 8.4
2017-May-19 00:31N 36°02' W 005°12'5 9.8
2017-May-19 00:00N 36°03' W 005°06'156 9.9
2017-May-18 08:11N 36°28' W 001°54'212.2
2017-May-18 08:00N 36°28' W 001°51'612.3
2017-May-18 07:30N 36°30' W 001°44'2312.2
2017-May-18 05:35N 36°33' W 001°15'212.2
2017-May-18 05:26N 36°33' W 001°13'512.2
2017-May-18 05:00N 36°34' W 001°06'1712.2
2017-May-18 03:37N 36°37' W 000°46'212.4
2017-May-18 03:27N 36°37' W 000°43'2912.2
2017-May-18 01:06N 36°41' W 000°08'512.1
2017-May-18 00:41N 36°42' W 000°01'712.2
2017-May-18 00:08N 36°43' E 000°07'212.3
2017-May-18 00:01N 36°43' E 000°09'612.1
2017-May-17 23:30N 36°44' E 000°16'1812.0
2017-May-17 22:00N 36°47' E 000°38'711.7
2017-May-17 21:25N 36°48' E 000°47'511.8
2017-May-17 21:00N 36°49' E 000°53'612.0
2017-May-17 20:30N 36°50' E 001°00'612.1
2017-May-17 20:00N 36°51' E 001°08'611.9
2017-May-17 19:30N 36°52' E 001°15'612.0
2017-May-17 19:00N 36°53' E 001°22'712.1
2017-May-17 18:25N 36°54' E 001°31'512.2
2017-May-17 17:59N 36°55' E 001°38'2512.4
2017-May-17 15:57N 36°59' E 002°09'512.3
2017-May-17 15:30N 36°60' E 002°16'612.4
2017-May-17 15:01N 37°00' E 002°23'1312.5
2017-May-17 14:00N 37°02' E 002°39'612.3
2017-May-17 13:30N 37°03' E 002°46'612.2
2017-May-17 13:00N 37°04' E 002°54'612.4
2017-May-17 12:31N 37°05' E 003°02'612.4
2017-May-17 12:00N 37°06' E 003°09'612.4
2017-May-17 11:30N 37°06' E 003°17'612.4
2017-May-17 11:00N 37°07' E 003°25'612.4
2017-May-17 10:31N 37°08' E 003°32'612.4
2017-May-17 10:00N 37°09' E 003°40'612.5
2017-May-17 09:30N 37°09' E 003°48'612.6
2017-May-17 09:00N 37°10' E 003°56'612.5
2017-May-17 08:30N 37°11' E 004°04'612.3
2017-May-17 07:59N 37°11' E 004°12'1712.3
2017-May-17 06:36N 37°13' E 004°33'112.5
2017-May-17 06:30N 37°13' E 004°34'612.2
2017-May-17 06:00N 37°14' E 004°42'612.4
2017-May-17 05:30N 37°15' E 004°50'812.3
2017-May-17 04:53N 37°15' E 004°59'512.1
2017-May-17 04:30N 37°15' E 005°05'612.0
2017-May-17 04:00N 37°15' E 005°13'1612.1
2017-May-17 02:39N 37°16' E 005°33'212.4
2017-May-17 02:28N 37°16' E 005°36'612.5
2017-May-17 02:00N 37°16' E 005°43'612.5
2017-May-17 01:30N 37°16' E 005°51'612.3
2017-May-17 01:00N 37°16' E 005°59'712.1
2017-May-17 00:28N 37°17' E 006°07'12212.0
2017-May-16 14:15N 37°19' E 008°41'1111.7
2017-May-16 13:18N 37°19' E 008°55'612.0
2017-May-16 12:48N 37°22' E 009°02'412.7
2017-May-16 12:28N 37°23' E 009°07'612.3
2017-May-16 12:00N 37°25' E 009°14'8010.7
2017-May-16 04:33N 37°31' E 010°54'111.1
2017-May-16 04:29N 37°31' E 010°54'8211.3
2017-May-15 21:14N 36°59' E 012°29'311.2
2017-May-15 20:59N 36°57' E 012°33'611.2
2017-May-15 20:24N 36°55' E 012°40'411.1
2017-May-15 20:00N 36°53' E 012°45'511.1
2017-May-15 19:30N 36°51' E 012°51'611.1
2017-May-15 19:00N 36°48' E 012°58'611.0
2017-May-15 18:30N 36°46' E 013°04'611.1
2017-May-15 18:00N 36°44' E 013°10'611.3
2017-May-15 17:30N 36°41' E 013°17'611.6
2017-May-15 17:01N 36°39' E 013°23'611.7
2017-May-15 16:30N 36°37' E 013°30'611.5
2017-May-15 16:00N 36°34' E 013°36'611.6
2017-May-15 15:31N 36°32' E 013°43'611.6
2017-May-15 15:00N 36°29' E 013°50'611.5
2017-May-15 14:30N 36°27' E 013°56'1111.4
2017-May-15 13:30N 36°23' E 014°09'611.2
2017-May-15 13:01N 36°20' E 014°15'611.2
2017-May-15 12:30N 36°20' E 014°22'611.1
2017-May-15 12:00N 36°20' E 014°29'611.1
2017-May-15 11:30N 36°20' E 014°36'611.2
2017-May-15 11:01N 36°20' E 014°43'611.3
2017-May-15 10:30N 36°20' E 014°50'611.5
2017-May-15 10:00N 36°20' E 014°57'611.6
2017-May-15 09:30N 36°21' E 015°04'611.5
2017-May-15 09:01N 36°21' E 015°11'611.7
2017-May-15 08:30N 36°22' E 015°19'4112.3
2017-May-15 05:09N 36°20' E 016°10'212.0
2017-May-15 05:00N 36°20' E 016°12'  

Dump ship's entire track history